sensor_id;sensor_type;location;lat;lon;timestamp;temperature;humidity
22112;DHT22;11222;50.872;4.312;2023-04-07T00:01:58;9.80;99.90
22112;DHT22;11222;50.872;4.312;2023-04-07T00:04:24;9.80;99.90
22112;DHT22;11222;50.872;4.312;2023-04-07T00:06:49;9.80;99.90
22112;DHT22;11222;50.872;4.312;2023-04-07T00:09:15;9.80;99.90
22112;DHT22;11222;50.872;4.312;2023-04-07T00:11:41;9.80;99.90
22112;DHT22;11222;50.872;4.312;2023-04-07T00:14:06;9.70;99.90
22112;DHT22;11222;50.872;4.312;2023-04-07T00:16:32;9.70;99.90
22112;DHT22;11222;50.872;4.312;2023-04-07T00:18:58;9.60;99.90
22112;DHT22;11222;50.872;4.312;2023-04-07T00:21:23;9.70;99.90
22112;DHT22;11222;50.872;4.312;2023-04-07T00:23:51;9.70;99.90
22112;DHT22;11222;50.872;4.312;2023-04-07T00:26:17;9.70;99.90
22112;DHT22;11222;50.872;4.312;2023-04-07T00:28:42;9.70;99.90
22112;DHT22;11222;50.872;4.312;2023-04-07T00:31:08;9.60;99.90
22112;DHT22;11222;50.872;4.312;2023-04-07T00:33:34;9.60;99.90
22112;DHT22;11222;50.872;4.312;2023-04-07T00:35:59;9.60;99.90
22112;DHT22;11222;50.872;4.312;2023-04-07T00:38:25;9.60;99.90
22112;DHT22;11222;50.872;4.312;2023-04-07T00:40:57;9.60;99.90
22112;DHT22;11222;50.872;4.312;2023-04-07T00:43:23;9.60;99.90
22112;DHT22;11222;50.872;4.312;2023-04-07T00:45:50;9.70;99.90
22112;DHT22;11222;50.872;4.312;2023-04-07T00:48:16;9.70;99.90
22112;DHT22;11222;50.872;4.312;2023-04-07T00:50:43;9.70;99.90
22112;DHT22;11222;50.872;4.312;2023-04-07T00:53:09;9.80;99.90
22112;DHT22;11222;50.872;4.312;2023-04-07T00:55:36;9.80;99.90
22112;DHT22;11222;50.872;4.312;2023-04-07T00:58:01;9.90;99.90
22112;DHT22;11222;50.872;4.312;2023-04-07T01:00:34;9.90;99.90
22112;DHT22;11222;50.872;4.312;2023-04-07T01:03:09;9.90;99.90
22112;DHT22;11222;50.872;4.312;2023-04-07T01:05:58;9.80;99.90
22112;DHT22;11222;50.872;4.312;2023-04-07T01:08:53;9.80;99.90
22112;DHT22;11222;50.872;4.312;2023-04-07T01:11:43;9.80;99.90
22112;DHT22;11222;50.872;4.312;2023-04-07T01:14:09;9.80;99.90
22112;DHT22;11222;50.872;4.312;2023-04-07T01:16:50;9.70;99.90
22112;DHT22;11222;50.872;4.312;2023-04-07T01:19:38;9.70;99.90
22112;DHT22;11222;50.872;4.312;2023-04-07T01:22:17;9.70;99.90
22112;DHT22;11222;50.872;4.312;2023-04-07T01:29:59;9.60;99.90
22112;DHT22;11222;50.872;4.312;2023-04-07T01:32:26;9.60;99.90
22112;DHT22;11222;50.872;4.312;2023-04-07T01:34:53;9.60;99.90
22112;DHT22;11222;50.872;4.312;2023-04-07T01:37:20;9.60;99.90
22112;DHT22;11222;50.872;4.312;2023-04-07T01:39:47;9.70;99.90
22112;DHT22;11222;50.872;4.312;2023-04-07T01:42:13;9.70;99.90
22112;DHT22;11222;50.872;4.312;2023-04-07T01:44:40;9.80;99.90
22112;DHT22;11222;50.872;4.312;2023-04-07T01:47:07;9.80;99.90
22112;DHT22;11222;50.872;4.312;2023-04-07T01:49:34;9.90;99.90
22112;DHT22;11222;50.872;4.312;2023-04-07T01:52:01;9.90;99.90
22112;DHT22;11222;50.872;4.312;2023-04-07T01:54:27;9.90;99.90
22112;DHT22;11222;50.872;4.312;2023-04-07T01:56:53;9.90;99.90
22112;DHT22;11222;50.872;4.312;2023-04-07T01:59:19;9.90;99.90
22112;DHT22;11222;50.872;4.312;2023-04-07T02:01:44;10.00;99.90
22112;DHT22;11222;50.872;4.312;2023-04-07T02:04:24;10.00;99.90
22112;DHT22;11222;50.872;4.312;2023-04-07T02:06:55;10.00;99.90
22112;DHT22;11222;50.872;4.312;2023-04-07T02:09:24;9.90;99.90
22112;DHT22;11222;50.872;4.312;2023-04-07T02:11:55;10.00;99.90
22112;DHT22;11222;50.872;4.312;2023-04-07T02:14:22;9.90;99.90
22112;DHT22;11222;50.872;4.312;2023-04-07T02:16:50;9.90;99.90
22112;DHT22;11222;50.872;4.312;2023-04-07T02:19:17;9.90;99.90
22112;DHT22;11222;50.872;4.312;2023-04-07T02:21:43;9.90;99.90
22112;DHT22;11222;50.872;4.312;2023-04-07T02:24:10;9.90;99.90
22112;DHT22;11222;50.872;4.312;2023-04-07T02:26:36;9.90;99.90
22112;DHT22;11222;50.872;4.312;2023-04-07T02:29:03;9.90;99.90
22112;DHT22;11222;50.872;4.312;2023-04-07T02:31:28;9.80;99.90
22112;DHT22;11222;50.872;4.312;2023-04-07T02:33:54;9.70;99.90
22112;DHT22;11222;50.872;4.312;2023-04-07T02:36:20;9.70;99.90
22112;DHT22;11222;50.872;4.312;2023-04-07T02:38:46;9.70;99.90
22112;DHT22;11222;50.872;4.312;2023-04-07T02:41:12;9.70;99.90
22112;DHT22;11222;50.872;4.312;2023-04-07T02:43:37;9.60;99.90
22112;DHT22;11222;50.872;4.312;2023-04-07T02:46:03;9.60;99.90
22112;DHT22;11222;50.872;4.312;2023-04-07T02:48:29;9.70;99.90
22112;DHT22;11222;50.872;4.312;2023-04-07T02:50:54;9.70;99.90
22112;DHT22;11222;50.872;4.312;2023-04-07T02:53:20;9.70;99.90
22112;DHT22;11222;50.872;4.312;2023-04-07T02:55:46;9.60;99.90
22112;DHT22;11222;50.872;4.312;2023-04-07T02:58:11;9.60;99.90
22112;DHT22;11222;50.872;4.312;2023-04-07T03:00:37;9.60;99.90
22112;DHT22;11222;50.872;4.312;2023-04-07T03:03:03;9.80;99.90
22112;DHT22;11222;50.872;4.312;2023-04-07T03:05:28;9.80;99.90
22112;DHT22;11222;50.872;4.312;2023-04-07T03:07:54;9.80;99.90
22112;DHT22;11222;50.872;4.312;2023-04-07T03:10:20;9.90;99.90
22112;DHT22;11222;50.872;4.312;2023-04-07T03:12:45;10.00;99.90
22112;DHT22;11222;50.872;4.312;2023-04-07T03:15:11;10.10;99.90
22112;DHT22;11222;50.872;4.312;2023-04-07T03:17:37;10.00;99.90
22112;DHT22;11222;50.872;4.312;2023-04-07T03:20:03;10.10;99.90
22112;DHT22;11222;50.872;4.312;2023-04-07T03:22:28;10.10;99.90
22112;DHT22;11222;50.872;4.312;2023-04-07T03:24:54;10.20;99.90
22112;DHT22;11222;50.872;4.312;2023-04-07T03:27:20;10.20;99.90
22112;DHT22;11222;50.872;4.312;2023-04-07T03:29:46;10.10;99.90
22112;DHT22;11222;50.872;4.312;2023-04-07T03:32:11;10.00;99.90
22112;DHT22;11222;50.872;4.312;2023-04-07T03:34:37;10.10;99.90
22112;DHT22;11222;50.872;4.312;2023-04-07T03:37:03;9.90;99.90
22112;DHT22;11222;50.872;4.312;2023-04-07T03:39:29;10.00;99.90
22112;DHT22;11222;50.872;4.312;2023-04-07T03:41:54;9.90;99.90
22112;DHT22;11222;50.872;4.312;2023-04-07T03:44:20;9.90;99.90
22112;DHT22;11222;50.872;4.312;2023-04-07T03:46:46;9.90;99.90
22112;DHT22;11222;50.872;4.312;2023-04-07T03:49:13;9.90;99.90
22112;DHT22;11222;50.872;4.312;2023-04-07T03:51:39;9.90;99.90
22112;DHT22;11222;50.872;4.312;2023-04-07T03:54:04;9.90;99.90
22112;DHT22;11222;50.872;4.312;2023-04-07T03:56:30;9.90;99.90
22112;DHT22;11222;50.872;4.312;2023-04-07T03:58:56;9.90;99.90
22112;DHT22;11222;50.872;4.312;2023-04-07T04:01:22;9.80;99.90
22112;DHT22;11222;50.872;4.312;2023-04-07T04:03:48;9.70;99.90
22112;DHT22;11222;50.872;4.312;2023-04-07T04:06:14;9.70;99.90
22112;DHT22;11222;50.872;4.312;2023-04-07T04:08:40;9.60;99.90
22112;DHT22;11222;50.872;4.312;2023-04-07T04:11:06;9.60;99.90
22112;DHT22;11222;50.872;4.312;2023-04-07T04:13:31;9.60;99.90
22112;DHT22;11222;50.872;4.312;2023-04-07T04:15:57;9.60;99.90
22112;DHT22;11222;50.872;4.312;2023-04-07T04:18:23;9.50;99.90
22112;DHT22;11222;50.872;4.312;2023-04-07T04:20:48;9.50;99.90
22112;DHT22;11222;50.872;4.312;2023-04-07T04:23:15;9.50;99.90
22112;DHT22;11222;50.872;4.312;2023-04-07T04:25:40;9.50;99.90
22112;DHT22;11222;50.872;4.312;2023-04-07T04:28:06;9.50;99.90
22112;DHT22;11222;50.872;4.312;2023-04-07T04:30:32;9.50;99.90
22112;DHT22;11222;50.872;4.312;2023-04-07T04:32:57;9.60;99.90
22112;DHT22;11222;50.872;4.312;2023-04-07T04:35:23;9.60;99.90
22112;DHT22;11222;50.872;4.312;2023-04-07T04:37:50;9.60;99.90
22112;DHT22;11222;50.872;4.312;2023-04-07T04:40:16;9.60;99.90
22112;DHT22;11222;50.872;4.312;2023-04-07T04:42:41;9.60;99.90
22112;DHT22;11222;50.872;4.312;2023-04-07T04:45:07;9.60;99.90
22112;DHT22;11222;50.872;4.312;2023-04-07T04:47:33;9.70;99.90
22112;DHT22;11222;50.872;4.312;2023-04-07T04:49:59;9.70;99.90
22112;DHT22;11222;50.872;4.312;2023-04-07T04:52:25;9.80;99.90
22112;DHT22;11222;50.872;4.312;2023-04-07T04:54:52;9.80;99.90
22112;DHT22;11222;50.872;4.312;2023-04-07T04:57:18;9.70;99.90
22112;DHT22;11222;50.872;4.312;2023-04-07T04:59:43;9.70;99.90
22112;DHT22;11222;50.872;4.312;2023-04-07T05:02:09;9.60;99.90
22112;DHT22;11222;50.872;4.312;2023-04-07T05:04:34;9.70;99.90
22112;DHT22;11222;50.872;4.312;2023-04-07T05:07:00;9.60;99.90
22112;DHT22;11222;50.872;4.312;2023-04-07T05:09:26;9.60;99.90
22112;DHT22;11222;50.872;4.312;2023-04-07T05:11:52;9.60;99.90
22112;DHT22;11222;50.872;4.312;2023-04-07T05:14:17;9.60;99.90
22112;DHT22;11222;50.872;4.312;2023-04-07T05:16:43;9.60;99.90
22112;DHT22;11222;50.872;4.312;2023-04-07T05:19:09;9.60;99.90
22112;DHT22;11222;50.872;4.312;2023-04-07T05:21:36;9.60;99.90
22112;DHT22;11222;50.872;4.312;2023-04-07T05:24:01;9.50;99.90
22112;DHT22;11222;50.872;4.312;2023-04-07T05:26:27;9.50;99.90
22112;DHT22;11222;50.872;4.312;2023-04-07T05:28:53;9.40;99.90
22112;DHT22;11222;50.872;4.312;2023-04-07T05:31:18;9.40;99.90
22112;DHT22;11222;50.872;4.312;2023-04-07T05:33:44;9.40;99.90
22112;DHT22;11222;50.872;4.312;2023-04-07T05:36:10;9.30;99.90
22112;DHT22;11222;50.872;4.312;2023-04-07T05:38:35;9.30;99.90
22112;DHT22;11222;50.872;4.312;2023-04-07T05:41:01;9.40;99.90
22112;DHT22;11222;50.872;4.312;2023-04-07T05:43:27;9.50;99.90
22112;DHT22;11222;50.872;4.312;2023-04-07T05:45:52;9.50;99.90
22112;DHT22;11222;50.872;4.312;2023-04-07T05:48:18;9.50;99.90
22112;DHT22;11222;50.872;4.312;2023-04-07T05:50:44;9.50;99.90
22112;DHT22;11222;50.872;4.312;2023-04-07T05:53:09;9.60;99.90
22112;DHT22;11222;50.872;4.312;2023-04-07T05:55:35;9.60;99.90
22112;DHT22;11222;50.872;4.312;2023-04-07T05:58:01;9.70;99.90
22112;DHT22;11222;50.872;4.312;2023-04-07T06:00:26;9.70;99.90
22112;DHT22;11222;50.872;4.312;2023-04-07T06:02:53;9.70;99.90
22112;DHT22;11222;50.872;4.312;2023-04-07T06:05:18;9.80;99.90
22112;DHT22;11222;50.872;4.312;2023-04-07T06:07:44;9.70;99.90
22112;DHT22;11222;50.872;4.312;2023-04-07T06:10:10;9.70;99.90
22112;DHT22;11222;50.872;4.312;2023-04-07T06:12:36;9.70;99.90
22112;DHT22;11222;50.872;4.312;2023-04-07T06:15:01;9.60;99.90
22112;DHT22;11222;50.872;4.312;2023-04-07T06:17:27;9.60;99.90
22112;DHT22;11222;50.872;4.312;2023-04-07T06:19:53;9.50;99.90
22112;DHT22;11222;50.872;4.312;2023-04-07T06:22:18;9.50;99.90
22112;DHT22;11222;50.872;4.312;2023-04-07T06:24:44;9.60;99.90
22112;DHT22;11222;50.872;4.312;2023-04-07T06:27:10;9.70;99.90
22112;DHT22;11222;50.872;4.312;2023-04-07T06:29:36;9.70;99.90
22112;DHT22;11222;50.872;4.312;2023-04-07T06:32:01;9.90;99.90
22112;DHT22;11222;50.872;4.312;2023-04-07T06:34:27;9.80;99.90
22112;DHT22;11222;50.872;4.312;2023-04-07T06:36:53;9.70;99.90
22112;DHT22;11222;50.872;4.312;2023-04-07T06:39:18;9.70;99.90
22112;DHT22;11222;50.872;4.312;2023-04-07T06:41:44;9.90;99.90
22112;DHT22;11222;50.872;4.312;2023-04-07T06:44:11;10.00;99.90
22112;DHT22;11222;50.872;4.312;2023-04-07T06:46:37;10.20;99.90
22112;DHT22;11222;50.872;4.312;2023-04-07T06:49:03;10.20;99.90
22112;DHT22;11222;50.872;4.312;2023-04-07T06:51:29;10.30;99.90
22112;DHT22;11222;50.872;4.312;2023-04-07T06:53:54;10.10;99.90
22112;DHT22;11222;50.872;4.312;2023-04-07T06:56:21;10.10;99.90
22112;DHT22;11222;50.872;4.312;2023-04-07T06:58:47;10.10;99.90
22112;DHT22;11222;50.872;4.312;2023-04-07T07:01:13;10.20;99.90
22112;DHT22;11222;50.872;4.312;2023-04-07T07:03:39;10.30;99.90
22112;DHT22;11222;50.872;4.312;2023-04-07T07:06:04;10.30;99.90
22112;DHT22;11222;50.872;4.312;2023-04-07T07:08:30;10.20;99.90
22112;DHT22;11222;50.872;4.312;2023-04-07T07:10:56;10.30;99.90
22112;DHT22;11222;50.872;4.312;2023-04-07T07:13:23;10.30;99.90
22112;DHT22;11222;50.872;4.312;2023-04-07T07:15:50;10.20;99.90
22112;DHT22;11222;50.872;4.312;2023-04-07T07:18:17;10.20;99.90
22112;DHT22;11222;50.872;4.312;2023-04-07T07:20:43;10.40;99.90
22112;DHT22;11222;50.872;4.312;2023-04-07T07:23:08;10.70;99.90
22112;DHT22;11222;50.872;4.312;2023-04-07T07:25:34;11.00;99.90
22112;DHT22;11222;50.872;4.312;2023-04-07T07:28:00;11.30;99.90
22112;DHT22;11222;50.872;4.312;2023-04-07T07:30:26;11.70;99.90
22112;DHT22;11222;50.872;4.312;2023-04-07T07:32:53;11.70;99.90
22112;DHT22;11222;50.872;4.312;2023-04-07T07:35:19;11.70;99.90
22112;DHT22;11222;50.872;4.312;2023-04-07T07:37:45;11.40;99.90
22112;DHT22;11222;50.872;4.312;2023-04-07T07:40:12;11.20;99.90
22112;DHT22;11222;50.872;4.312;2023-04-07T07:42:37;10.70;99.90
22112;DHT22;11222;50.872;4.312;2023-04-07T07:45:04;10.60;99.90
22112;DHT22;11222;50.872;4.312;2023-04-07T07:47:30;10.20;99.90
22112;DHT22;11222;50.872;4.312;2023-04-07T07:49:56;10.10;99.90
22112;DHT22;11222;50.872;4.312;2023-04-07T07:52:22;10.20;99.90
22112;DHT22;11222;50.872;4.312;2023-04-07T07:54:48;10.20;99.90
22112;DHT22;11222;50.872;4.312;2023-04-07T07:57:14;10.20;99.90
22112;DHT22;11222;50.872;4.312;2023-04-07T07:59:40;10.30;99.90
22112;DHT22;11222;50.872;4.312;2023-04-07T08:02:06;10.40;99.90
22112;DHT22;11222;50.872;4.312;2023-04-07T08:04:32;10.60;99.90
22112;DHT22;11222;50.872;4.312;2023-04-07T08:06:58;10.70;99.90
22112;DHT22;11222;50.872;4.312;2023-04-07T08:09:24;10.70;99.90
22112;DHT22;11222;50.872;4.312;2023-04-07T08:11:50;10.40;99.90
22112;DHT22;11222;50.872;4.312;2023-04-07T08:14:17;10.20;99.90
22112;DHT22;11222;50.872;4.312;2023-04-07T08:16:43;10.20;99.90
22112;DHT22;11222;50.872;4.312;2023-04-07T08:19:09;9.90;99.90
22112;DHT22;11222;50.872;4.312;2023-04-07T08:21:34;9.90;99.90
22112;DHT22;11222;50.872;4.312;2023-04-07T08:24:00;9.90;99.90
22112;DHT22;11222;50.872;4.312;2023-04-07T08:26:26;10.00;99.90
22112;DHT22;11222;50.872;4.312;2023-04-07T08:28:52;10.20;99.90
22112;DHT22;11222;50.872;4.312;2023-04-07T08:31:18;10.30;99.90
22112;DHT22;11222;50.872;4.312;2023-04-07T08:33:44;10.40;99.90
22112;DHT22;11222;50.872;4.312;2023-04-07T08:36:11;10.50;99.90
22112;DHT22;11222;50.872;4.312;2023-04-07T08:38:36;10.80;99.90
22112;DHT22;11222;50.872;4.312;2023-04-07T08:41:07;10.90;99.90
22112;DHT22;11222;50.872;4.312;2023-04-07T08:43:34;11.00;99.90
22112;DHT22;11222;50.872;4.312;2023-04-07T08:46:04;11.10;99.90
22112;DHT22;11222;50.872;4.312;2023-04-07T08:48:31;11.20;99.90
22112;DHT22;11222;50.872;4.312;2023-04-07T08:51:08;11.30;99.90
22112;DHT22;11222;50.872;4.312;2023-04-07T08:53:48;11.20;99.90
22112;DHT22;11222;50.872;4.312;2023-04-07T08:56:17;11.30;99.90
22112;DHT22;11222;50.872;4.312;2023-04-07T08:58:44;11.40;99.90
22112;DHT22;11222;50.872;4.312;2023-04-07T09:01:10;11.60;99.90
22112;DHT22;11222;50.872;4.312;2023-04-07T09:03:37;11.70;99.90
22112;DHT22;11222;50.872;4.312;2023-04-07T09:06:03;11.90;99.90
22112;DHT22;11222;50.872;4.312;2023-04-07T09:08:29;12.00;99.90
22112;DHT22;11222;50.872;4.312;2023-04-07T09:10:56;13.40;99.90
22112;DHT22;11222;50.872;4.312;2023-04-07T09:13:23;14.80;99.90
22112;DHT22;11222;50.872;4.312;2023-04-07T09:15:49;15.60;99.90
22112;DHT22;11222;50.872;4.312;2023-04-07T09:18:15;15.90;99.90
22112;DHT22;11222;50.872;4.312;2023-04-07T09:20:57;14.90;99.90
22112;DHT22;11222;50.872;4.312;2023-04-07T09:25:56;14.80;99.90
22112;DHT22;11222;50.872;4.312;2023-04-07T09:28:41;14.40;99.90
22112;DHT22;11222;50.872;4.312;2023-04-07T09:31:07;14.00;99.90
22112;DHT22;11222;50.872;4.312;2023-04-07T09:33:33;14.00;99.90
22112;DHT22;11222;50.872;4.312;2023-04-07T09:35:59;14.10;99.90
22112;DHT22;11222;50.872;4.312;2023-04-07T09:38:32;14.30;99.90
22112;DHT22;11222;50.872;4.312;2023-04-07T09:41:11;13.90;99.90
22112;DHT22;11222;50.872;4.312;2023-04-07T09:43:42;13.70;99.90
22112;DHT22;11222;50.872;4.312;2023-04-07T09:46:12;13.30;99.90
22112;DHT22;11222;50.872;4.312;2023-04-07T09:48:38;13.10;99.90
22112;DHT22;11222;50.872;4.312;2023-04-07T09:51:12;13.70;99.90
22112;DHT22;11222;50.872;4.312;2023-04-07T09:53:49;15.90;99.90
22112;DHT22;11222;50.872;4.312;2023-04-07T09:56:17;17.50;99.90
22112;DHT22;11222;50.872;4.312;2023-04-07T09:58:45;18.40;99.90
22112;DHT22;11222;50.872;4.312;2023-04-07T10:01:12;18.30;99.90
22112;DHT22;11222;50.872;4.312;2023-04-07T10:03:38;18.10;99.90
22112;DHT22;11222;50.872;4.312;2023-04-07T10:06:05;18.70;99.90
22112;DHT22;11222;50.872;4.312;2023-04-07T10:08:33;18.60;99.90
22112;DHT22;11222;50.872;4.312;2023-04-07T10:11:02;18.30;99.90
22112;DHT22;11222;50.872;4.312;2023-04-07T10:13:30;18.90;99.90
22112;DHT22;11222;50.872;4.312;2023-04-07T10:15:57;17.80;99.90
22112;DHT22;11222;50.872;4.312;2023-04-07T10:18:28;16.20;99.90
22112;DHT22;11222;50.872;4.312;2023-04-07T10:21:00;15.80;99.90
22112;DHT22;11222;50.872;4.312;2023-04-07T10:26:11;14.10;99.90
22112;DHT22;11222;50.872;4.312;2023-04-07T10:28:42;13.70;99.90
22112;DHT22;11222;50.872;4.312;2023-04-07T10:31:09;13.00;99.90
22112;DHT22;11222;50.872;4.312;2023-04-07T10:33:46;12.70;99.90
22112;DHT22;11222;50.872;4.312;2023-04-07T10:36:12;12.50;99.90
22112;DHT22;11222;50.872;4.312;2023-04-07T10:38:38;12.50;99.90
22112;DHT22;11222;50.872;4.312;2023-04-07T10:44:04;12.40;99.90
22112;DHT22;11222;50.872;4.312;2023-04-07T10:49:16;12.70;99.90
22112;DHT22;11222;50.872;4.312;2023-04-07T10:51:43;12.80;99.90
22112;DHT22;11222;50.872;4.312;2023-04-07T10:54:21;12.70;99.90
22112;DHT22;11222;50.872;4.312;2023-04-07T10:59:35;12.70;99.90
22112;DHT22;11222;50.872;4.312;2023-04-07T11:04:44;12.70;99.90
22112;DHT22;11222;50.872;4.312;2023-04-07T11:07:11;12.90;99.90
22112;DHT22;11222;50.872;4.312;2023-04-07T11:09:37;13.20;99.90
22112;DHT22;11222;50.872;4.312;2023-04-07T11:12:03;13.30;99.90
22112;DHT22;11222;50.872;4.312;2023-04-07T11:14:32;13.00;99.90
22112;DHT22;11222;50.872;4.312;2023-04-07T11:16:59;12.90;99.90
22112;DHT22;11222;50.872;4.312;2023-04-07T11:19:27;12.60;99.90
22112;DHT22;11222;50.872;4.312;2023-04-07T11:22:12;12.30;99.90
22112;DHT22;11222;50.872;4.312;2023-04-07T11:24:39;12.00;99.90
22112;DHT22;11222;50.872;4.312;2023-04-07T11:27:05;11.80;99.90
22112;DHT22;11222;50.872;4.312;2023-04-07T11:29:32;11.70;99.90
22112;DHT22;11222;50.872;4.312;2023-04-07T11:32:00;11.80;99.90
22112;DHT22;11222;50.872;4.312;2023-04-07T11:34:31;11.80;99.90
22112;DHT22;11222;50.872;4.312;2023-04-07T11:36:57;11.70;99.90
22112;DHT22;11222;50.872;4.312;2023-04-07T11:39:27;11.80;99.90
22112;DHT22;11222;50.872;4.312;2023-04-07T11:41:56;12.00;99.90
22112;DHT22;11222;50.872;4.312;2023-04-07T11:44:22;12.20;99.90
22112;DHT22;11222;50.872;4.312;2023-04-07T11:47:06;12.30;99.90
22112;DHT22;11222;50.872;4.312;2023-04-07T11:49:32;12.60;99.90
22112;DHT22;11222;50.872;4.312;2023-04-07T11:52:04;12.80;99.90
22112;DHT22;11222;50.872;4.312;2023-04-07T11:57:06;13.10;99.90
22112;DHT22;11222;50.872;4.312;2023-04-07T11:59:35;13.30;99.90
22112;DHT22;11222;50.872;4.312;2023-04-07T12:02:00;13.60;99.90
22112;DHT22;11222;50.872;4.312;2023-04-07T12:04:26;13.50;99.90
22112;DHT22;11222;50.872;4.312;2023-04-07T12:06:52;13.20;99.90
22112;DHT22;11222;50.872;4.312;2023-04-07T12:09:29;12.80;99.90
22112;DHT22;11222;50.872;4.312;2023-04-07T12:11:56;12.80;99.90
22112;DHT22;11222;50.872;4.312;2023-04-07T12:14:22;12.80;99.90
22112;DHT22;11222;50.872;4.312;2023-04-07T12:16:48;12.70;99.90
22112;DHT22;11222;50.872;4.312;2023-04-07T12:19:14;12.60;99.90
22112;DHT22;11222;50.872;4.312;2023-04-07T12:21:41;12.50;99.90
22112;DHT22;11222;50.872;4.312;2023-04-07T12:24:08;12.60;99.90
22112;DHT22;11222;50.872;4.312;2023-04-07T12:26:33;12.60;99.90
22112;DHT22;11222;50.872;4.312;2023-04-07T12:28:59;12.80;99.90
22112;DHT22;11222;50.872;4.312;2023-04-07T12:31:32;13.00;99.90
22112;DHT22;11222;50.872;4.312;2023-04-07T12:33:59;13.10;99.90
22112;DHT22;11222;50.872;4.312;2023-04-07T12:36:25;12.60;99.90
22112;DHT22;11222;50.872;4.312;2023-04-07T12:38:55;12.60;99.90
22112;DHT22;11222;50.872;4.312;2023-04-07T12:41:21;12.40;99.90
22112;DHT22;11222;50.872;4.312;2023-04-07T12:43:47;12.50;99.90
22112;DHT22;11222;50.872;4.312;2023-04-07T12:46:13;12.30;99.90
22112;DHT22;11222;50.872;4.312;2023-04-07T12:48:39;12.20;99.90
22112;DHT22;11222;50.872;4.312;2023-04-07T12:51:05;12.10;99.90
22112;DHT22;11222;50.872;4.312;2023-04-07T12:53:30;12.50;99.90
22112;DHT22;11222;50.872;4.312;2023-04-07T12:55:57;12.80;99.90
22112;DHT22;11222;50.872;4.312;2023-04-07T12:58:23;12.50;99.90
22112;DHT22;11222;50.872;4.312;2023-04-07T13:00:51;12.50;99.90
22112;DHT22;11222;50.872;4.312;2023-04-07T13:03:16;12.60;99.90
22112;DHT22;11222;50.872;4.312;2023-04-07T13:05:42;12.40;99.90
22112;DHT22;11222;50.872;4.312;2023-04-07T13:08:08;12.40;99.90
22112;DHT22;11222;50.872;4.312;2023-04-07T13:10:34;12.60;99.90
22112;DHT22;11222;50.872;4.312;2023-04-07T13:13:00;12.50;99.90
22112;DHT22;11222;50.872;4.312;2023-04-07T13:15:25;12.10;99.90
22112;DHT22;11222;50.872;4.312;2023-04-07T13:17:52;12.20;99.90
22112;DHT22;11222;50.872;4.312;2023-04-07T13:20:18;12.10;99.90
22112;DHT22;11222;50.872;4.312;2023-04-07T13:22:44;12.30;99.90
22112;DHT22;11222;50.872;4.312;2023-04-07T13:25:10;12.50;99.90
22112;DHT22;11222;50.872;4.312;2023-04-07T13:27:36;12.60;99.90
22112;DHT22;11222;50.872;4.312;2023-04-07T13:30:03;12.80;99.90
22112;DHT22;11222;50.872;4.312;2023-04-07T13:32:29;12.90;99.90
22112;DHT22;11222;50.872;4.312;2023-04-07T13:34:55;12.70;99.90
22112;DHT22;11222;50.872;4.312;2023-04-07T13:37:21;12.60;99.90
22112;DHT22;11222;50.872;4.312;2023-04-07T13:39:47;12.50;99.90
22112;DHT22;11222;50.872;4.312;2023-04-07T13:42:13;12.50;99.90
22112;DHT22;11222;50.872;4.312;2023-04-07T13:44:42;12.70;99.90
22112;DHT22;11222;50.872;4.312;2023-04-07T13:47:12;12.90;99.90
22112;DHT22;11222;50.872;4.312;2023-04-07T13:49:39;12.80;99.90
22112;DHT22;11222;50.872;4.312;2023-04-07T13:52:05;13.00;99.90
22112;DHT22;11222;50.872;4.312;2023-04-07T13:54:31;13.00;99.90
22112;DHT22;11222;50.872;4.312;2023-04-07T13:56:56;13.00;99.90
22112;DHT22;11222;50.872;4.312;2023-04-07T13:59:22;12.80;99.90
22112;DHT22;11222;50.872;4.312;2023-04-07T14:01:48;12.40;99.90
22112;DHT22;11222;50.872;4.312;2023-04-07T14:04:14;12.60;99.90
22112;DHT22;11222;50.872;4.312;2023-04-07T14:06:40;12.80;99.90
22112;DHT22;11222;50.872;4.312;2023-04-07T14:09:06;12.80;99.90
22112;DHT22;11222;50.872;4.312;2023-04-07T14:11:32;12.70;99.90
22112;DHT22;11222;50.872;4.312;2023-04-07T14:13:59;12.60;99.90
22112;DHT22;11222;50.872;4.312;2023-04-07T14:16:24;12.40;99.90
22112;DHT22;11222;50.872;4.312;2023-04-07T14:18:50;12.30;99.90
22112;DHT22;11222;50.872;4.312;2023-04-07T14:21:16;12.20;99.90
22112;DHT22;11222;50.872;4.312;2023-04-07T14:23:42;12.20;99.90
22112;DHT22;11222;50.872;4.312;2023-04-07T14:26:11;12.50;99.90
22112;DHT22;11222;50.872;4.312;2023-04-07T14:28:37;12.60;99.90
22112;DHT22;11222;50.872;4.312;2023-04-07T14:31:03;12.50;99.90
22112;DHT22;11222;50.872;4.312;2023-04-07T14:33:29;12.30;99.90
22112;DHT22;11222;50.872;4.312;2023-04-07T14:35:54;12.20;99.90
22112;DHT22;11222;50.872;4.312;2023-04-07T14:38:20;12.40;99.90
22112;DHT22;11222;50.872;4.312;2023-04-07T14:40:49;12.40;99.90
22112;DHT22;11222;50.872;4.312;2023-04-07T14:43:14;12.20;99.90
22112;DHT22;11222;50.872;4.312;2023-04-07T14:45:41;12.20;99.90
22112;DHT22;11222;50.872;4.312;2023-04-07T14:48:08;12.00;99.90
22112;DHT22;11222;50.872;4.312;2023-04-07T14:50:33;11.70;99.90
22112;DHT22;11222;50.872;4.312;2023-04-07T14:52:59;11.80;99.90
22112;DHT22;11222;50.872;4.312;2023-04-07T14:55:25;11.90;99.90
22112;DHT22;11222;50.872;4.312;2023-04-07T14:57:51;12.10;99.90
22112;DHT22;11222;50.872;4.312;2023-04-07T15:00:17;12.00;99.90
22112;DHT22;11222;50.872;4.312;2023-04-07T15:02:42;12.10;99.90
22112;DHT22;11222;50.872;4.312;2023-04-07T15:05:08;12.30;99.90
22112;DHT22;11222;50.872;4.312;2023-04-07T15:07:34;12.30;99.90
22112;DHT22;11222;50.872;4.312;2023-04-07T15:10:00;12.20;99.90
22112;DHT22;11222;50.872;4.312;2023-04-07T15:12:26;12.40;99.90
22112;DHT22;11222;50.872;4.312;2023-04-07T15:14:54;12.50;99.90
22112;DHT22;11222;50.872;4.312;2023-04-07T15:17:19;12.70;99.90
22112;DHT22;11222;50.872;4.312;2023-04-07T15:19:46;12.40;99.90
22112;DHT22;11222;50.872;4.312;2023-04-07T15:22:12;12.30;99.90
22112;DHT22;11222;50.872;4.312;2023-04-07T15:24:38;12.20;99.90
22112;DHT22;11222;50.872;4.312;2023-04-07T15:27:05;12.20;99.90
22112;DHT22;11222;50.872;4.312;2023-04-07T15:29:31;12.20;99.90
22112;DHT22;11222;50.872;4.312;2023-04-07T15:31:56;12.30;99.90
22112;DHT22;11222;50.872;4.312;2023-04-07T15:34:22;12.40;99.90
22112;DHT22;11222;50.872;4.312;2023-04-07T15:36:48;11.90;99.90
22112;DHT22;11222;50.872;4.312;2023-04-07T15:39:13;11.80;99.90
22112;DHT22;11222;50.872;4.312;2023-04-07T15:41:39;11.70;99.90
22112;DHT22;11222;50.872;4.312;2023-04-07T15:44:05;11.70;99.90
22112;DHT22;11222;50.872;4.312;2023-04-07T15:46:31;11.60;99.90
22112;DHT22;11222;50.872;4.312;2023-04-07T15:48:58;11.50;99.90
22112;DHT22;11222;50.872;4.312;2023-04-07T15:51:24;11.60;99.90
22112;DHT22;11222;50.872;4.312;2023-04-07T15:53:51;11.60;99.90
22112;DHT22;11222;50.872;4.312;2023-04-07T15:56:17;11.60;99.90
22112;DHT22;11222;50.872;4.312;2023-04-07T15:58:42;11.40;99.90
22112;DHT22;11222;50.872;4.312;2023-04-07T16:01:09;11.40;99.90